KWYS Airport Information

Runway Information
Runway 01 Length 8399 ft width 150 ft
Elevation 6644 ft Threshold 0 ft Heading 26
Runway 19 Length 8399 ft Width 150 ft
Elevation 6629 ft Threshold 0 ft Heading 206
Airport Frequencies
Type CNTR Name SALT LAKE Frequency 132.4 MHZ
Type RDO Name GREAT FALL Frequency 119.4 MHZ
Type UNIC Name CTAF/UNICO Frequency 123 MHZ
Airport Navaids
Type NDB Name Targy Frequency 415 KHZ
Airport Weather Information & NOTAM
ADDS - METARS form results

(2103 UTC 23 February 2019)
Data provider http://aviationweather.gov/metar/data/
 
METAR text: KWYS 232050Z AUTO 22014G19KT 2SM -SN FEW022 FEW028 BKN044 M09/M13 A2993 RMK AO2
Conditions at: KWYS (WEST YELLOWSTONE, MT, US) observed 2050 UTC 23 February 2019
Temperature: -9.0°C (16°F)
Dewpoint: -13.0°C ( 9°F) [RH = 73%]
Pressure (altimeter): 29.93 inches Hg (1013.6 mb)
Winds: from the SW (220 degrees) at 16 MPH (14 knots; 7.2 m/s)
gusting to 22 MPH (19 knots; 9.8 m/s)
Visibility: 2.00 miles (3.22 km)
Ceiling: 4400 feet AGL
Clouds: few clouds at 2200 feet AGL
few clouds at 2800 feet AGL
broken clouds at 4400 feet AGL
Weather: -SN  (light snow)

METAR text: KWYS 232030Z AUTO 22017KT 2SM HZ BKN022 BKN028 BKN043 M09/M13 A2993 RMK AO2
Conditions at: KWYS (WEST YELLOWSTONE, MT, US) observed 2030 UTC 23 February 2019
Temperature: -9.0°C (16°F)
Dewpoint: -13.0°C ( 9°F) [RH = 73%]
Pressure (altimeter): 29.93 inches Hg (1013.6 mb)
Winds: from the SW (220 degrees) at 20 MPH (17 knots; 8.7 m/s)
Visibility: 2.00 miles (3.22 km)
Ceiling: 2200 feet AGL
Clouds: broken clouds at 2200 feet AGL
broken clouds at 2800 feet AGL
broken clouds at 4300 feet AGL
Weather: HZ  (haze)

METAR text: KWYS 232010Z AUTO 23014G25KT 1 1/2SM HZ BKN021 BKN025 M09/M14 A2994 RMK AO2 VIS 3/4V3
Conditions at: KWYS (WEST YELLOWSTONE, MT, US) observed 2010 UTC 23 February 2019
Temperature: -9.0°C (16°F)
Dewpoint: -14.0°C ( 7°F) [RH = 67%]
Pressure (altimeter): 29.94 inches Hg (1014.0 mb)
Winds: from the SW (230 degrees) at 16 MPH (14 knots; 7.2 m/s)
gusting to 29 MPH (25 knots; 12.9 m/s)
Visibility: 1.50 miles (2.41 km)
Ceiling: 2100 feet AGL
Clouds: broken clouds at 2100 feet AGL
broken clouds at 2500 feet AGL
Weather: HZ  (haze)